sensor_id;sensor_type;location;lat;lon;timestamp;pressure;altitude;pressure_sealevel;temperature;humidity
29941;BME280;16801;53.562;10.038;2023-05-23T00:01:54;101223.78;;;19.32;86.98
29941;BME280;16801;53.562;10.038;2023-05-23T00:05:17;101223.94;;;19.39;86.51
29941;BME280;16801;53.562;10.038;2023-05-23T00:08:38;101222.59;;;19.35;86.62
29941;BME280;16801;53.562;10.038;2023-05-23T00:11:59;101211.47;;;19.36;86.72
29941;BME280;16801;53.562;10.038;2023-05-23T00:15:20;101200.44;;;18.84;87.47
29941;BME280;16801;53.562;10.038;2023-05-23T00:18:42;101203.53;;;18.51;88.45
29941;BME280;16801;53.562;10.038;2023-05-23T00:22:04;101200.16;;;18.71;89.03
29941;BME280;16801;53.562;10.038;2023-05-23T00:25:25;101187.69;;;18.99;89.01
29941;BME280;16801;53.562;10.038;2023-05-23T00:28:53;101190.28;;;19.15;88.33
29941;BME280;16801;53.562;10.038;2023-05-23T00:32:14;101180.28;;;18.85;88.88
29941;BME280;16801;53.562;10.038;2023-05-23T00:35:37;101189.44;;;18.92;88.98
29941;BME280;16801;53.562;10.038;2023-05-23T00:38:58;101194.53;;;18.50;89.19
29941;BME280;16801;53.562;10.038;2023-05-23T00:42:20;101190.94;;;18.50;90.09
29941;BME280;16801;53.562;10.038;2023-05-23T00:45:41;101179.81;;;18.51;90.47
29941;BME280;16801;53.562;10.038;2023-05-23T00:49:03;101190.16;;;18.64;90.34
29941;BME280;16801;53.562;10.038;2023-05-23T00:52:25;101194.84;;;18.78;90.31
29941;BME280;16801;53.562;10.038;2023-05-23T00:55:48;101189.44;;;18.70;90.39
29941;BME280;16801;53.562;10.038;2023-05-23T00:59:09;101177.97;;;18.74;90.15
29941;BME280;16801;53.562;10.038;2023-05-23T01:02:31;101172.63;;;18.58;90.39
29941;BME280;16801;53.562;10.038;2023-05-23T01:05:55;101176.63;;;18.70;90.14
29941;BME280;16801;53.562;10.038;2023-05-23T01:09:17;101166.63;;;18.85;90.09
29941;BME280;16801;53.562;10.038;2023-05-23T01:12:49;101163.81;;;18.93;89.91
29941;BME280;16801;53.562;10.038;2023-05-23T01:16:15;101158.84;;;18.97;89.60
29941;BME280;16801;53.562;10.038;2023-05-23T01:19:54;101160.72;;;18.96;89.54
29941;BME280;16801;53.562;10.038;2023-05-23T01:23:49;101156.28;;;18.95;89.61
29941;BME280;16801;53.562;10.038;2023-05-23T01:27:23;101149.81;;;19.11;89.50
29941;BME280;16801;53.562;10.038;2023-05-23T01:30:52;101154.50;;;19.02;89.46
29941;BME280;16801;53.562;10.038;2023-05-23T01:34:17;101153.56;;;18.95;89.50
29941;BME280;16801;53.562;10.038;2023-05-23T01:37:39;101151.31;;;18.99;89.77
29941;BME280;16801;53.562;10.038;2023-05-23T01:41:01;101150.28;;;19.00;89.89
29941;BME280;16801;53.562;10.038;2023-05-23T01:44:21;101152.09;;;19.07;90.20
29941;BME280;16801;53.562;10.038;2023-05-23T01:47:45;101145.75;;;19.07;89.95
29941;BME280;16801;53.562;10.038;2023-05-23T01:51:08;101160.19;;;19.15;89.36
29941;BME280;16801;53.562;10.038;2023-05-23T01:54:29;101154.59;;;18.72;89.04
29941;BME280;16801;53.562;10.038;2023-05-23T01:57:52;101156.25;;;18.58;89.27
29941;BME280;16801;53.562;10.038;2023-05-23T02:01:14;101171.81;;;17.72;90.61
29941;BME280;16801;53.562;10.038;2023-05-23T02:04:36;101168.59;;;17.44;91.89
29941;BME280;16801;53.562;10.038;2023-05-23T02:07:57;101172.19;;;17.13;93.37
29941;BME280;16801;53.562;10.038;2023-05-23T02:11:18;101165.59;;;16.99;94.27
29941;BME280;16801;53.562;10.038;2023-05-23T02:14:39;101166.03;;;17.43;94.29
29941;BME280;16801;53.562;10.038;2023-05-23T02:18:01;101173.56;;;17.41;93.53
29941;BME280;16801;53.562;10.038;2023-05-23T02:21:25;101181.25;;;16.89;93.77
29941;BME280;16801;53.562;10.038;2023-05-23T02:24:45;101181.75;;;17.09;93.79
29941;BME280;16801;53.562;10.038;2023-05-23T02:28:06;101180.38;;;17.13;93.51
29941;BME280;16801;53.562;10.038;2023-05-23T02:31:27;101174.06;;;16.72;93.62
29941;BME280;16801;53.562;10.038;2023-05-23T02:34:48;101183.78;;;17.07;93.69
29941;BME280;16801;53.562;10.038;2023-05-23T02:38:10;101183.09;;;17.45;93.46
29941;BME280;16801;53.562;10.038;2023-05-23T02:41:34;101188.22;;;17.24;92.70
29941;BME280;16801;53.562;10.038;2023-05-23T02:44:55;101185.84;;;16.97;92.57
29941;BME280;16801;53.562;10.038;2023-05-23T02:48:16;101184.47;;;16.85;93.28
29941;BME280;16801;53.562;10.038;2023-05-23T02:51:37;101185.63;;;16.50;93.55
29941;BME280;16801;53.562;10.038;2023-05-23T02:54:59;101175.75;;;16.73;93.75
29941;BME280;16801;53.562;10.038;2023-05-23T02:58:23;101178.84;;;16.78;93.80
29941;BME280;16801;53.562;10.038;2023-05-23T03:01:43;101174.88;;;16.56;93.97
29941;BME280;16801;53.562;10.038;2023-05-23T03:05:05;101178.16;;;16.84;93.75
29941;BME280;16801;53.562;10.038;2023-05-23T03:08:26;101177.34;;;16.92;93.45
29941;BME280;16801;53.562;10.038;2023-05-23T03:11:49;101177.31;;;16.84;92.90
29941;BME280;16801;53.562;10.038;2023-05-23T03:15:10;101189.91;;;17.09;92.77
29941;BME280;16801;53.562;10.038;2023-05-23T03:18:33;101194.66;;;16.66;92.54
29941;BME280;16801;53.562;10.038;2023-05-23T03:21:55;101182.22;;;16.56;92.78
29941;BME280;16801;53.562;10.038;2023-05-23T03:25:16;101185.31;;;16.77;92.46
29941;BME280;16801;53.562;10.038;2023-05-23T03:28:39;101179.53;;;16.80;92.26
29941;BME280;16801;53.562;10.038;2023-05-23T03:31:59;101173.41;;;17.10;91.82
29941;BME280;16801;53.562;10.038;2023-05-23T03:35:20;101185.00;;;17.12;91.64
29941;BME280;16801;53.562;10.038;2023-05-23T03:38:42;101179.72;;;17.19;91.15
29941;BME280;16801;53.562;10.038;2023-05-23T03:42:03;101183.09;;;17.13;90.81
29941;BME280;16801;53.562;10.038;2023-05-23T03:45:25;101187.38;;;17.15;90.75
29941;BME280;16801;53.562;10.038;2023-05-23T03:48:46;101175.94;;;16.79;91.21
29941;BME280;16801;53.562;10.038;2023-05-23T03:52:07;101181.56;;;16.86;91.03
29941;BME280;16801;53.562;10.038;2023-05-23T03:55:28;101183.59;;;16.68;91.17
29941;BME280;16801;53.562;10.038;2023-05-23T03:58:51;101170.00;;;16.84;90.85
29941;BME280;16801;53.562;10.038;2023-05-23T04:02:13;101172.03;;;16.66;90.59
29941;BME280;16801;53.562;10.038;2023-05-23T04:05:34;101175.56;;;16.58;90.49
29941;BME280;16801;53.562;10.038;2023-05-23T04:08:55;101173.41;;;16.86;90.03
29941;BME280;16801;53.562;10.038;2023-05-23T04:12:16;101189.03;;;16.52;89.60
29941;BME280;16801;53.562;10.038;2023-05-23T04:15:37;101182.72;;;16.51;89.71
29941;BME280;16801;53.562;10.038;2023-05-23T04:19:03;101192.44;;;16.62;90.07
29941;BME280;16801;53.562;10.038;2023-05-23T04:22:24;101192.44;;;16.54;90.13
29941;BME280;16801;53.562;10.038;2023-05-23T04:25:46;101192.94;;;16.57;90.29
29941;BME280;16801;53.562;10.038;2023-05-23T04:29:15;101197.44;;;16.33;90.96
29941;BME280;16801;53.562;10.038;2023-05-23T04:32:36;101203.88;;;16.32;91.26
29941;BME280;16801;53.562;10.038;2023-05-23T04:35:59;101201.16;;;15.90;91.26
29941;BME280;16801;53.562;10.038;2023-05-23T04:39:20;101203.88;;;16.32;91.38
29941;BME280;16801;53.562;10.038;2023-05-23T04:43:13;101215.22;;;16.61;91.30
29941;BME280;16801;53.562;10.038;2023-05-23T04:46:41;101212.81;;;16.08;91.39
29941;BME280;16801;53.562;10.038;2023-05-23T04:50:16;101207.84;;;15.70;92.30
29941;BME280;16801;53.562;10.038;2023-05-23T04:53:39;101205.78;;;15.89;92.98
29941;BME280;16801;53.562;10.038;2023-05-23T04:57:04;101214.25;;;15.86;93.54
29941;BME280;16801;53.562;10.038;2023-05-23T05:00:26;101208.97;;;16.19;93.10
29941;BME280;16801;53.562;10.038;2023-05-23T05:03:49;101206.97;;;16.37;93.00
29941;BME280;16801;53.562;10.038;2023-05-23T05:07:10;101211.03;;;16.25;92.49
29941;BME280;16801;53.562;10.038;2023-05-23T05:10:33;101209.53;;;16.38;92.63
29941;BME280;16801;53.562;10.038;2023-05-23T05:13:55;101213.78;;;16.41;92.45
29941;BME280;16801;53.562;10.038;2023-05-23T05:17:17;101208.22;;;16.09;92.28
29941;BME280;16801;53.562;10.038;2023-05-23T05:20:54;101206.47;;;16.33;92.43
29941;BME280;16801;53.562;10.038;2023-05-23T05:24:15;101213.34;;;16.53;92.67
29941;BME280;16801;53.562;10.038;2023-05-23T05:27:40;101214.78;;;16.32;92.78
29941;BME280;16801;53.562;10.038;2023-05-23T05:31:04;101212.25;;;16.46;92.54
29941;BME280;16801;53.562;10.038;2023-05-23T05:34:27;101209.53;;;16.38;93.02
29941;BME280;16801;53.562;10.038;2023-05-23T05:37:49;101215.81;;;16.39;93.14
29941;BME280;16801;53.562;10.038;2023-05-23T05:41:11;101216.84;;;16.46;93.14
29941;BME280;16801;53.562;10.038;2023-05-23T05:44:39;101218.06;;;16.43;93.01
29941;BME280;16801;53.562;10.038;2023-05-23T05:48:01;101214.34;;;16.52;92.74
29941;BME280;16801;53.562;10.038;2023-05-23T05:51:22;101224.44;;;16.60;93.25
29941;BME280;16801;53.562;10.038;2023-05-23T05:54:43;101224.06;;;16.55;92.68
29941;BME280;16801;53.562;10.038;2023-05-23T05:58:05;101223.97;;;16.31;92.96
29941;BME280;16801;53.562;10.038;2023-05-23T06:01:42;101223.72;;;16.50;92.98
29941;BME280;16801;53.562;10.038;2023-05-23T06:05:05;101221.59;;;16.36;92.95
29941;BME280;16801;53.562;10.038;2023-05-23T06:08:26;101230.13;;;16.41;93.37
29941;BME280;16801;53.562;10.038;2023-05-23T06:11:47;101228.16;;;16.59;93.21
29941;BME280;16801;53.562;10.038;2023-05-23T06:15:09;101234.13;;;16.62;93.55
29941;BME280;16801;53.562;10.038;2023-05-23T06:18:33;101237.50;;;16.56;93.17
29941;BME280;16801;53.562;10.038;2023-05-23T06:21:54;101240.06;;;16.50;93.46
29941;BME280;16801;53.562;10.038;2023-05-23T06:25:17;101242.13;;;16.64;93.30
29941;BME280;16801;53.562;10.038;2023-05-23T06:28:40;101241.97;;;16.73;93.41
29941;BME280;16801;53.562;10.038;2023-05-23T06:32:01;101251.31;;;16.63;93.34
29941;BME280;16801;53.562;10.038;2023-05-23T06:35:23;101249.47;;;16.71;93.71
29941;BME280;16801;53.562;10.038;2023-05-23T06:38:44;101251.09;;;16.56;93.68
29941;BME280;16801;53.562;10.038;2023-05-23T06:42:05;101251.97;;;16.57;94.33
29941;BME280;16801;53.562;10.038;2023-05-23T06:45:44;101250.72;;;16.43;94.44
29941;BME280;16801;53.562;10.038;2023-05-23T06:49:06;101254.38;;;16.26;94.63
29941;BME280;16801;53.562;10.038;2023-05-23T06:52:30;101261.34;;;16.21;94.90
29941;BME280;16801;53.562;10.038;2023-05-23T06:55:52;101261.00;;;16.24;95.63
29941;BME280;16801;53.562;10.038;2023-05-23T06:59:14;101267.84;;;16.36;95.59
29941;BME280;16801;53.562;10.038;2023-05-23T07:02:36;101271.63;;;16.43;96.13
29941;BME280;16801;53.562;10.038;2023-05-23T07:05:59;101272.38;;;16.53;95.71
29941;BME280;16801;53.562;10.038;2023-05-23T07:09:21;101271.84;;;16.49;95.29
29941;BME280;16801;53.562;10.038;2023-05-23T07:12:42;101279.41;;;16.38;94.78
29941;BME280;16801;53.562;10.038;2023-05-23T07:16:03;101277.91;;;16.35;95.31
29941;BME280;16801;53.562;10.038;2023-05-23T07:19:27;101282.50;;;16.43;94.92
29941;BME280;16801;53.562;10.038;2023-05-23T07:22:48;101290.50;;;16.44;94.41
29941;BME280;16801;53.562;10.038;2023-05-23T07:26:12;101289.75;;;16.26;93.89
29941;BME280;16801;53.562;10.038;2023-05-23T07:29:39;101302.47;;;16.18;93.05
29941;BME280;16801;53.562;10.038;2023-05-23T07:33:01;101299.59;;;16.27;93.19
29941;BME280;16801;53.562;10.038;2023-05-23T07:36:23;101302.88;;;16.31;92.59
29941;BME280;16801;53.562;10.038;2023-05-23T07:39:45;101313.09;;;16.37;91.93
29941;BME280;16801;53.562;10.038;2023-05-23T07:43:07;101316.88;;;16.44;91.42
29941;BME280;16801;53.562;10.038;2023-05-23T07:46:28;101316.50;;;16.64;91.10
29941;BME280;16801;53.562;10.038;2023-05-23T07:49:49;101318.69;;;16.61;89.90
29941;BME280;16801;53.562;10.038;2023-05-23T07:53:11;101325.53;;;16.73;89.44
29941;BME280;16801;53.562;10.038;2023-05-23T07:56:33;101327.53;;;16.63;88.84
29941;BME280;16801;53.562;10.038;2023-05-23T07:59:55;101336.84;;;17.02;88.22
29941;BME280;16801;53.562;10.038;2023-05-23T08:03:18;101336.34;;;16.99;87.42
29941;BME280;16801;53.562;10.038;2023-05-23T08:06:51;101332.41;;;16.93;87.13
29941;BME280;16801;53.562;10.038;2023-05-23T08:10:15;101342.88;;;16.38;87.01
29941;BME280;16801;53.562;10.038;2023-05-23T08:13:37;101342.97;;;16.54;87.17
29941;BME280;16801;53.562;10.038;2023-05-23T08:17:17;101350.63;;;16.51;87.03
29941;BME280;16801;53.562;10.038;2023-05-23T08:20:39;101359.72;;;16.67;87.36
29941;BME280;16801;53.562;10.038;2023-05-23T08:24:00;101368.81;;;16.50;86.74
29941;BME280;16801;53.562;10.038;2023-05-23T08:27:21;101365.00;;;16.69;86.24
29941;BME280;16801;53.562;10.038;2023-05-23T08:30:47;101375.88;;;16.69;86.56
29941;BME280;16801;53.562;10.038;2023-05-23T08:34:10;101382.94;;;16.88;85.54
29941;BME280;16801;53.562;10.038;2023-05-23T08:37:32;101388.31;;;17.13;84.33
29941;BME280;16801;53.562;10.038;2023-05-23T08:40:54;101385.88;;;17.02;82.86
29941;BME280;16801;53.562;10.038;2023-05-23T08:44:17;101392.38;;;16.67;82.35
29941;BME280;16801;53.562;10.038;2023-05-23T08:47:42;101394.16;;;16.76;81.92
29941;BME280;16801;53.562;10.038;2023-05-23T08:51:06;101404.63;;;16.63;82.46
29941;BME280;16801;53.562;10.038;2023-05-23T08:54:30;101413.75;;;16.54;83.10
29941;BME280;16801;53.562;10.038;2023-05-23T08:57:52;101416.41;;;16.21;83.14
29941;BME280;16801;53.562;10.038;2023-05-23T09:01:36;101411.81;;;16.21;84.68
29941;BME280;16801;53.562;10.038;2023-05-23T09:05:00;101418.22;;;16.12;85.39
29941;BME280;16801;53.562;10.038;2023-05-23T09:08:22;101416.88;;;16.16;86.67
29941;BME280;16801;53.562;10.038;2023-05-23T09:11:48;101416.97;;;16.07;86.92
29941;BME280;16801;53.562;10.038;2023-05-23T09:15:10;101434.69;;;16.11;87.68
29941;BME280;16801;53.562;10.038;2023-05-23T09:18:34;101433.66;;;15.68;88.46
29941;BME280;16801;53.562;10.038;2023-05-23T09:21:57;101436.75;;;15.73;89.18
29941;BME280;16801;53.562;10.038;2023-05-23T09:25:21;101461.66;;;15.69;89.63
29941;BME280;16801;53.562;10.038;2023-05-23T09:28:43;101469.13;;;15.49;90.60
29941;BME280;16801;53.562;10.038;2023-05-23T09:32:14;101479.56;;;15.17;90.89
29941;BME280;16801;53.562;10.038;2023-05-23T09:35:35;101472.78;;;15.03;91.50
29941;BME280;16801;53.562;10.038;2023-05-23T09:38:56;101482.00;;;14.83;91.80
29941;BME280;16801;53.562;10.038;2023-05-23T09:42:22;101482.94;;;15.01;92.00
29941;BME280;16801;53.562;10.038;2023-05-23T09:45:42;101490.44;;;15.17;91.43
29941;BME280;16801;53.562;10.038;2023-05-23T09:49:14;101496.38;;;15.30;91.65
29941;BME280;16801;53.562;10.038;2023-05-23T09:52:37;101498.91;;;15.14;90.98
29941;BME280;16801;53.562;10.038;2023-05-23T09:55:59;101502.31;;;15.16;91.28
29941;BME280;16801;53.562;10.038;2023-05-23T09:59:25;101502.44;;;15.14;90.46
29941;BME280;16801;53.562;10.038;2023-05-23T10:02:54;101505.69;;;15.28;89.97
29941;BME280;16801;53.562;10.038;2023-05-23T10:06:18;101509.69;;;15.23;89.84
29941;BME280;16801;53.562;10.038;2023-05-23T10:09:44;101513.69;;;14.92;89.80
29941;BME280;16801;53.562;10.038;2023-05-23T10:13:07;101524.41;;;14.94;89.48
29941;BME280;16801;53.562;10.038;2023-05-23T10:16:37;101520.00;;;14.93;89.28
29941;BME280;16801;53.562;10.038;2023-05-23T10:20:03;101528.28;;;14.91;89.03
29941;BME280;16801;53.562;10.038;2023-05-23T10:23:27;101533.72;;;14.91;88.83
29941;BME280;16801;53.562;10.038;2023-05-23T10:26:49;101535.91;;;14.78;88.99
29941;BME280;16801;53.562;10.038;2023-05-23T10:30:11;101542.53;;;15.03;88.83
29941;BME280;16801;53.562;10.038;2023-05-23T10:33:39;101548.78;;;15.40;88.17
29941;BME280;16801;53.562;10.038;2023-05-23T10:37:02;101546.66;;;15.44;87.07
29941;BME280;16801;53.562;10.038;2023-05-23T10:40:31;101564.25;;;15.49;86.30
29941;BME280;16801;53.562;10.038;2023-05-23T10:43:59;101568.53;;;15.05;86.04
29941;BME280;16801;53.562;10.038;2023-05-23T10:47:28;101568.22;;;15.08;85.52
29941;BME280;16801;53.562;10.038;2023-05-23T10:51:06;101578.09;;;15.09;84.89
29941;BME280;16801;53.562;10.038;2023-05-23T10:54:33;101586.78;;;15.23;84.77
29941;BME280;16801;53.562;10.038;2023-05-23T10:58:11;101573.63;;;15.18;83.42
29941;BME280;16801;53.562;10.038;2023-05-23T11:01:38;101587.16;;;15.37;82.87
29941;BME280;16801;53.562;10.038;2023-05-23T11:05:18;101589.59;;;15.31;82.60
29941;BME280;16801;53.562;10.038;2023-05-23T11:08:42;101595.06;;;15.21;81.89
29941;BME280;16801;53.562;10.038;2023-05-23T11:12:06;101595.22;;;15.19;81.47
29941;BME280;16801;53.562;10.038;2023-05-23T11:15:27;101601.41;;;15.49;80.50
29941;BME280;16801;53.562;10.038;2023-05-23T11:18:47;101609.59;;;16.21;77.21
29941;BME280;16801;53.562;10.038;2023-05-23T11:22:08;101598.16;;;16.52;73.71
29941;BME280;16801;53.562;10.038;2023-05-23T11:25:41;101606.91;;;16.82;71.84
29941;BME280;16801;53.562;10.038;2023-05-23T11:29:07;101608.66;;;16.47;70.63
29941;BME280;16801;53.562;10.038;2023-05-23T11:32:29;101605.09;;;16.64;71.13
29941;BME280;16801;53.562;10.038;2023-05-23T11:35:50;101603.69;;;17.04;69.41
29941;BME280;16801;53.562;10.038;2023-05-23T11:39:12;101603.38;;;17.40;68.65
29941;BME280;16801;53.562;10.038;2023-05-23T11:42:40;101606.59;;;17.36;68.09
29941;BME280;16801;53.562;10.038;2023-05-23T11:46:06;101615.63;;;17.11;67.15
29941;BME280;16801;53.562;10.038;2023-05-23T11:49:29;101615.94;;;16.82;67.91
29941;BME280;16801;53.562;10.038;2023-05-23T11:52:51;101623.97;;;16.48;68.38
29941;BME280;16801;53.562;10.038;2023-05-23T11:56:15;101633.22;;;16.20;68.75
29941;BME280;16801;53.562;10.038;2023-05-23T11:59:38;101634.94;;;16.39;67.26
29941;BME280;16801;53.562;10.038;2023-05-23T12:03:05;101637.91;;;16.63;66.53
29941;BME280;16801;53.562;10.038;2023-05-23T12:06:26;101631.81;;;16.69;65.84
29941;BME280;16801;53.562;10.038;2023-05-23T12:09:47;101624.34;;;16.36;63.96
29941;BME280;16801;53.562;10.038;2023-05-23T12:13:07;101633.91;;;17.44;62.24
29941;BME280;16801;53.562;10.038;2023-05-23T12:16:30;101633.63;;;17.29;62.01
29941;BME280;16801;53.562;10.038;2023-05-23T12:19:51;101628.25;;;17.63;61.22
29941;BME280;16801;53.562;10.038;2023-05-23T12:23:17;101650.13;;;17.45;59.99
29941;BME280;16801;53.562;10.038;2023-05-23T12:26:45;101646.59;;;17.53;59.70
29941;BME280;16801;53.562;10.038;2023-05-23T12:30:07;101654.50;;;17.98;59.19
29941;BME280;16801;53.562;10.038;2023-05-23T12:33:30;101648.09;;;18.31;58.49
29941;BME280;16801;53.562;10.038;2023-05-23T12:36:53;101652.19;;;18.27;57.51
29941;BME280;16801;53.562;10.038;2023-05-23T12:40:15;101641.00;;;18.62;57.22
29941;BME280;16801;53.562;10.038;2023-05-23T12:43:37;101654.34;;;19.38;54.47
29941;BME280;16801;53.562;10.038;2023-05-23T12:46:59;101650.91;;;19.44;53.25
29941;BME280;16801;53.562;10.038;2023-05-23T12:50:21;101669.00;;;18.48;54.91
29941;BME280;16801;53.562;10.038;2023-05-23T12:53:42;101652.28;;;18.67;55.35
29941;BME280;16801;53.562;10.038;2023-05-23T12:57:03;101661.81;;;18.47;55.56
29941;BME280;16801;53.562;10.038;2023-05-23T13:00:25;101663.59;;;18.22;55.49
29941;BME280;16801;53.562;10.038;2023-05-23T13:03:48;101679.84;;;17.90;56.97
29941;BME280;16801;53.562;10.038;2023-05-23T13:07:11;101677.88;;;17.67;57.32
29941;BME280;16801;53.562;10.038;2023-05-23T13:10:32;101678.63;;;18.26;55.16
29941;BME280;16801;53.562;10.038;2023-05-23T13:13:53;101693.28;;;18.25;54.95
29941;BME280;16801;53.562;10.038;2023-05-23T13:17:13;101675.50;;;19.11;53.03
29941;BME280;16801;53.562;10.038;2023-05-23T13:20:34;101695.16;;;18.67;52.95
29941;BME280;16801;53.562;10.038;2023-05-23T13:23:57;101697.41;;;17.36;55.88
29941;BME280;16801;53.562;10.038;2023-05-23T13:27:18;101709.09;;;17.03;56.52
29941;BME280;16801;53.562;10.038;2023-05-23T13:30:39;101709.53;;;16.99;57.19
29941;BME280;16801;53.562;10.038;2023-05-23T13:34:00;101708.78;;;17.06;57.37
29941;BME280;16801;53.562;10.038;2023-05-23T13:37:21;101709.63;;;17.07;57.39
29941;BME280;16801;53.562;10.038;2023-05-23T13:40:43;101726.44;;;16.85;57.34
29941;BME280;16801;53.562;10.038;2023-05-23T13:44:04;101721.47;;;16.62;57.93
29941;BME280;16801;53.562;10.038;2023-05-23T13:47:25;101723.97;;;16.56;57.49
29941;BME280;16801;53.562;10.038;2023-05-23T13:50:46;101731.91;;;16.85;57.93
29941;BME280;16801;53.562;10.038;2023-05-23T13:54:06;101723.03;;;16.83;56.68
29941;BME280;16801;53.562;10.038;2023-05-23T13:57:28;101716.34;;;16.77;56.79
29941;BME280;16801;53.562;10.038;2023-05-23T14:00:50;101725.75;;;17.43;56.05
29941;BME280;16801;53.562;10.038;2023-05-23T14:04:11;101724.97;;;17.77;55.49
29941;BME280;16801;53.562;10.038;2023-05-23T14:07:32;101728.06;;;18.65;52.54
29941;BME280;16801;53.562;10.038;2023-05-23T14:10:53;101737.84;;;18.34;52.57
29941;BME280;16801;53.562;10.038;2023-05-23T14:14:15;101728.03;;;18.49;52.84
29941;BME280;16801;53.562;10.038;2023-05-23T14:17:35;101723.91;;;18.03;52.65
29941;BME280;16801;53.562;10.038;2023-05-23T14:20:56;101741.16;;;17.52;53.37
29941;BME280;16801;53.562;10.038;2023-05-23T14:24:17;101744.84;;;17.69;54.55
29941;BME280;16801;53.562;10.038;2023-05-23T14:27:38;101727.75;;;17.33;54.62
29941;BME280;16801;53.562;10.038;2023-05-23T14:31:00;101745.31;;;17.39;55.88
29941;BME280;16801;53.562;10.038;2023-05-23T14:34:21;101741.72;;;17.38;60.00
29941;BME280;16801;53.562;10.038;2023-05-23T14:37:43;101747.78;;;16.89;58.80
29941;BME280;16801;53.562;10.038;2023-05-23T14:41:04;101754.84;;;16.64;59.31
29941;BME280;16801;53.562;10.038;2023-05-23T14:44:25;101759.19;;;16.57;59.20
29941;BME280;16801;53.562;10.038;2023-05-23T14:47:47;101760.75;;;16.33;59.11
29941;BME280;16801;53.562;10.038;2023-05-23T14:51:08;101761.13;;;16.11;59.03
29941;BME280;16801;53.562;10.038;2023-05-23T14:54:29;101771.22;;;16.28;59.14
29941;BME280;16801;53.562;10.038;2023-05-23T14:57:50;101766.78;;;16.27;58.96
29941;BME280;16801;53.562;10.038;2023-05-23T15:01:11;101782.75;;;16.12;58.62
29941;BME280;16801;53.562;10.038;2023-05-23T15:04:34;101775.75;;;16.10;58.33
29941;BME280;16801;53.562;10.038;2023-05-23T15:07:55;101782.34;;;17.06;58.21
29941;BME280;16801;53.562;10.038;2023-05-23T15:11:16;101787.31;;;17.11;57.07
29941;BME280;16801;53.562;10.038;2023-05-23T15:14:37;101787.00;;;16.96;57.55
29941;BME280;16801;53.562;10.038;2023-05-23T15:17:58;101781.78;;;16.85;58.39
29941;BME280;16801;53.562;10.038;2023-05-23T15:21:24;101790.44;;;16.17;58.00
29941;BME280;16801;53.562;10.038;2023-05-23T15:24:45;101783.03;;;16.19;58.22
29941;BME280;16801;53.562;10.038;2023-05-23T15:28:06;101774.97;;;16.54;59.50
29941;BME280;16801;53.562;10.038;2023-05-23T15:31:27;101785.13;;;16.97;58.41
29941;BME280;16801;53.562;10.038;2023-05-23T15:34:48;101781.78;;;17.55;56.45
29941;BME280;16801;53.562;10.038;2023-05-23T15:38:11;101778.94;;;18.24;56.19
29941;BME280;16801;53.562;10.038;2023-05-23T15:41:32;101793.63;;;16.94;55.22
29941;BME280;16801;53.562;10.038;2023-05-23T15:44:52;101801.72;;;16.58;56.50
29941;BME280;16801;53.562;10.038;2023-05-23T15:48:13;101800.97;;;16.39;56.55
29941;BME280;16801;53.562;10.038;2023-05-23T15:51:34;101803.44;;;16.59;57.89
29941;BME280;16801;53.562;10.038;2023-05-23T15:54:57;101799.13;;;16.30;57.07
29941;BME280;16801;53.562;10.038;2023-05-23T15:58:17;101806.75;;;15.89;57.05
29941;BME280;16801;53.562;10.038;2023-05-23T16:01:39;101815.66;;;15.72;57.29
29941;BME280;16801;53.562;10.038;2023-05-23T16:05:00;101809.66;;;15.40;58.02
29941;BME280;16801;53.562;10.038;2023-05-23T16:08:21;101802.66;;;15.57;58.62
29941;BME280;16801;53.562;10.038;2023-05-23T16:11:43;101795.81;;;15.62;58.12
29941;BME280;16801;53.562;10.038;2023-05-23T16:15:04;101809.50;;;15.70;57.86
29941;BME280;16801;53.562;10.038;2023-05-23T16:18:25;101813.84;;;15.54;57.58
29941;BME280;16801;53.562;10.038;2023-05-23T16:21:46;101801.09;;;15.64;57.54
29941;BME280;16801;53.562;10.038;2023-05-23T16:25:09;101812.53;;;15.39;57.93
29941;BME280;16801;53.562;10.038;2023-05-23T16:28:31;101824.09;;;15.31;58.02
29941;BME280;16801;53.562;10.038;2023-05-23T16:31:52;101804.50;;;15.08;58.89
29941;BME280;16801;53.562;10.038;2023-05-23T16:35:14;101822.81;;;15.06;59.35
29941;BME280;16801;53.562;10.038;2023-05-23T16:38:34;101811.81;;;14.98;58.65
29941;BME280;16801;53.562;10.038;2023-05-23T16:41:57;101810.78;;;14.80;58.11
29941;BME280;16801;53.562;10.038;2023-05-23T16:45:20;101816.50;;;14.96;59.03
29941;BME280;16801;53.562;10.038;2023-05-23T16:48:40;101822.09;;;15.71;59.47
29941;BME280;16801;53.562;10.038;2023-05-23T16:52:04;101822.97;;;15.62;58.97
29941;BME280;16801;53.562;10.038;2023-05-23T16:55:25;101809.50;;;15.61;58.94
29941;BME280;16801;53.562;10.038;2023-05-23T16:58:45;101817.38;;;15.73;58.76
29941;BME280;16801;53.562;10.038;2023-05-23T17:02:08;101828.84;;;15.39;57.61
29941;BME280;16801;53.562;10.038;2023-05-23T17:05:31;101823.78;;;15.91;56.50
29941;BME280;16801;53.562;10.038;2023-05-23T17:08:52;101822.41;;;15.59;56.89
29941;BME280;16801;53.562;10.038;2023-05-23T17:12:13;101825.69;;;14.95;58.07
29941;BME280;16801;53.562;10.038;2023-05-23T17:15:34;101815.09;;;14.92;57.95
29941;BME280;16801;53.562;10.038;2023-05-23T17:18:56;101821.09;;;14.96;58.55
29941;BME280;16801;53.562;10.038;2023-05-23T17:22:16;101829.53;;;14.93;58.44
29941;BME280;16801;53.562;10.038;2023-05-23T17:25:37;101834.78;;;14.75;58.71
29941;BME280;16801;53.562;10.038;2023-05-23T17:28:58;101834.91;;;14.83;59.35